Time;durP1;ratioP1;P1;durP2;ratioP2;P2;SDS_P1;SDS_P2;PMS_P1;PMS_P2;Temp;Humidity;BMP_temperature;BMP_pressure;BME280_temperature;BME280_humidity;BME280_pressure;Samples;Min_cycle;Max_cycle;Signal;HPM_P1;HPM_P2
2022/10/13 00:01:34;;;;;;;10.23;4.65;;;;;;;7.11;95.89;101099.72;10535594;28;20078;-67
2022/10/13 00:06:35;;;;;;;7.20;4.45;;;;;;;7.07;96.51;101100.94;10539412;28;20043;-67
2022/10/13 00:11:36;;;;;;;5.82;3.85;;;;;;;6.11;96.61;100967.94;10543400;28;20040;-67
2022/10/13 00:16:36;;;;;;;13.77;4.53;;;;;;;6.90;96.43;101104.13;10543129;28;20114;-67
2022/10/13 00:21:37;;;;;;;10.25;4.20;;;;;;;6.84;97.24;101071.97;10543101;28;20032;-67
2022/10/13 00:26:38;;;;;;;8.38;4.13;;;;;;;7.04;96.73;101098.56;10542837;28;20044;-67
2022/10/13 00:31:39;;;;;;;8.70;4.25;;;;;;;7.05;96.76;101105.50;10542807;28;20059;-67
2022/10/13 00:36:40;;;;;;;14.32;3.83;;;;;;;7.13;95.96;101105.72;10542211;28;20059;-67
2022/10/13 00:41:40;;;;;;;19.08;4.25;;;;;;;7.11;96.21;101110.28;10524365;28;20051;-67
2022/10/13 00:46:41;;;;;;;11.77;4.35;;;;;;;7.18;96.46;101113.25;10542725;28;20047;-67
2022/10/13 00:51:46;;;;;;;8.25;4.10;;;;;;;7.18;96.96;101115.88;10541243;28;20044;-67
2022/10/13 00:56:49;;;;;;;5.78;3.95;;;;;;;7.08;96.73;101103.44;10523929;28;20055;-67
2022/10/13 01:01:50;;;;;;;10.90;4.72;;;;;;;7.09;96.47;101096.38;10541330;28;20047;-67
2022/10/13 01:06:54;;;;;;;15.13;4.45;;;;;;;6.69;97.60;101030.16;10540831;28;20040;-67
2022/10/13 01:12:18;;;;;;;19.92;4.72;;;;;;;7.27;99.15;101109.88;10541490;28;20047;-67
2022/10/13 01:17:24;;;;;;;;;;;;;;;7.48;98.70;101125.75;10540500;28;20047;-67
2022/10/13 01:22:25;;;;;;;11.02;3.72;;;;;;;6.60;96.10;101019.38;10540698;28;19916;-67
2022/10/13 01:27:47;;;;;;;9.65;4.32;;;;;;;7.17;99.35;101114.22;10540203;28;20665;-67
2022/10/13 01:33:15;;;;;;;14.95;4.28;;;;;;;7.34;99.02;101133.97;10539785;28;20048;-67
2022/10/13 01:38:25;;;;;;;15.25;4.70;;;;;;;6.10;96.87;100929.34;10539584;28;20515;-67
2022/10/13 01:43:39;;;;;;;8.10;3.70;;;;;;;7.13;98.30;101121.56;10521305;28;20460;-67
2022/10/13 01:48:44;;;;;;;6.55;4.05;;;;;;;7.16;98.02;101131.88;10539737;28;20097;-67
2022/10/13 01:53:46;;;;;;;13.00;3.95;;;;;;;6.85;97.88;101099.25;10539077;28;20127;-67
2022/10/13 01:58:50;;;;;;;8.75;4.40;;;;;;;7.13;98.32;101144.53;10539221;28;20040;-67
2022/10/13 02:04:16;;;;;;;11.20;4.53;;;;;;;7.16;100.00;101157.47;10538946;28;20040;-67
2022/10/13 02:09:34;;;;;;;12.23;4.68;;;;;;;7.11;100.00;101147.28;10538736;28;20483;-67
2022/10/13 02:14:39;;;;;;;5.93;4.20;;;;;;;6.96;99.28;101135.31;10538205;28;20036;-67
2022/10/13 02:19:40;;;;;;;8.25;4.38;;;;;;;6.95;98.65;101131.00;10538874;28;20093;-67
2022/10/13 02:24:41;;;;;;;13.43;4.70;;;;;;;6.42;98.29;101039.34;10539090;28;20076;-67
2022/10/13 02:29:53;;;;;;;8.15;4.57;;;;;;;6.91;100.00;101132.22;10537174;28;20089;-67
2022/10/13 02:34:54;;;;;;;13.20;4.55;;;;;;;6.96;99.38;101143.25;10537584;28;20048;-67
2022/10/13 02:39:54;;;;;;;27.90;4.40;;;;;;;6.27;99.80;101033.50;10537851;28;20036;-67
2022/10/13 02:44:55;;;;;;;13.18;4.97;;;;;;;6.90;99.99;101138.47;10519635;28;20037;-67
2022/10/13 02:49:56;;;;;;;6.70;4.32;;;;;;;6.81;99.76;101140.88;10537441;28;20036;-67
2022/10/13 02:54:57;;;;;;;17.05;5.13;;;;;;;6.23;100.00;101055.81;10537671;28;20126;-67
2022/10/13 02:59:57;;;;;;;34.17;5.20;;;;;;;6.05;99.83;101023.84;10537359;28;20498;-67
2022/10/13 03:04:58;;;;;;;24.23;4.80;;;;;;;6.11;99.68;101043.63;10530319;28;20036;-67
2022/10/13 03:09:59;;;;;;;44.45;5.82;;;;;;;6.56;99.36;101114.78;10538080;28;20075;-67
2022/10/13 03:15:00;;;;;;;107.07;8.95;;;;;;;6.69;99.57;101131.31;10505188;28;20043;-68
2022/10/13 03:20:00;;;;;;;118.80;9.95;;;;;;;6.70;99.61;101129.50;10530874;28;20086;-69
2022/10/13 03:25:02;;;;;;;25.88;6.03;;;;;;;6.71;99.25;101133.84;10533531;28;20422;-69
2022/10/13 03:30:04;;;;;;;7.05;4.28;;;;;;;6.05;100.00;101021.19;10532466;28;20052;-69
2022/10/13 03:35:05;;;;;;;123.40;9.90;;;;;;;6.77;99.71;101144.75;10532076;28;20040;-69
2022/10/13 03:40:07;;;;;;;28.02;5.75;;;;;;;6.56;100.00;101098.94;10538970;28;20130;-69
2022/10/13 03:45:09;;;;;;;36.95;6.05;;;;;;;6.88;99.75;101137.75;10544232;28;20526;-69
2022/10/13 03:50:10;;;;;;;52.40;5.80;;;;;;;6.40;99.95;101014.88;10544724;28;20123;-69
2022/10/13 03:55:11;;;;;;;28.83;5.72;;;;;;;6.70;99.84;101022.13;10544264;28;20135;-69
2022/10/13 04:00:12;;;;;;;57.58;9.88;;;;;;;7.75;98.90;101133.97;10544021;28;20067;-69
2022/10/13 04:05:13;;;;;;;35.47;9.10;;;;;;;7.47;97.73;101011.19;10536232;28;20496;-69
2022/10/13 04:10:14;;;;;;;25.50;7.68;;;;;;;7.18;96.68;100930.94;10542551;28;20071;-69
2022/10/13 04:15:15;;;;;;;18.15;5.47;;;;;;;8.54;96.28;101141.31;10543465;28;20415;-69
2022/10/13 04:20:16;;;;;;;19.95;5.05;;;;;;;7.70;96.58;101024.25;10533200;28;20044;-68
2022/10/13 04:25:17;;;;;;;12.00;4.90;;;;;;;7.60;97.48;101039.22;10527524;28;20052;-67
2022/10/13 04:30:18;;;;;;;17.90;4.55;;;;;;;8.16;97.96;101158.69;10542317;28;20109;-68
2022/10/13 04:35:18;;;;;;;16.92;4.45;;;;;;;8.24;98.48;101168.63;10543155;28;20549;-71
2022/10/13 04:40:19;;;;;;;16.55;3.67;;;;;;;8.39;98.47;101161.19;10542237;28;20044;-69
2022/10/13 04:45:20;;;;;;;11.52;4.53;;;;;;;8.31;98.16;101135.34;10541116;28;20042;-68
2022/10/13 04:50:21;;;;;;;17.92;4.55;;;;;;;8.57;98.24;101129.63;10541559;28;20035;-69
2022/10/13 04:55:22;;;;;;;14.05;5.00;;;;;;;9.03;98.16;101165.25;10534424;28;20055;-66
2022/10/13 05:00:22;;;;;;;10.80;3.97;;;;;;;9.14;97.81;101152.69;10541011;28;20043;-67
2022/10/13 05:05:23;;;;;;;11.75;4.80;;;;;;;9.37;97.56;101158.56;10541854;28;20036;-68
2022/10/13 05:10:24;;;;;;;14.82;4.53;;;;;;;8.92;96.61;101046.97;10541107;28;20046;-70
2022/10/13 05:15:25;;;;;;;9.10;5.15;;;;;;;9.77;96.49;101169.97;10540835;28;20127;-69
2022/10/13 05:20:26;;;;;;;11.95;4.30;;;;;;;9.93;95.92;101153.44;10540306;28;20123;-66
2022/10/13 05:25:26;;;;;;;8.73;4.30;;;;;;;10.16;95.52;101138.00;10541131;28;20044;-67
2022/10/13 05:30:27;;;;;;;8.55;4.57;;;;;;;10.55;94.22;101145.81;10539820;28;20132;-67
2022/10/13 05:35:28;;;;;;;12.25;4.45;;;;;;;11.06;93.07;101157.66;10541107;28;20618;-67
2022/10/13 05:40:29;;;;;;;4.90;3.47;;;;;;;10.88;91.43;101073.44;10540041;28;20108;-67
2022/10/13 05:45:32;;;;;;;13.05;4.28;;;;;;;11.22;90.91;101131.25;10539754;28;20097;-67
2022/10/13 05:50:33;;;;;;;8.52;4.47;;;;;;;11.26;90.97;101156.53;10539058;28;20577;-67
2022/10/13 05:55:34;;;;;;;8.13;4.63;;;;;;;11.33;90.82;101157.59;10539574;28;20043;-68
2022/10/13 06:00:35;;;;;;;13.05;4.90;;;;;;;11.06;90.03;101051.31;10540284;28;20043;-67
2022/10/13 06:05:37;;;;;;;13.05;5.30;;;;;;;11.80;89.19;101133.34;10539077;28;20488;-67
2022/10/13 06:10:37;;;;;;;24.75;5.30;;;;;;;12.34;87.54;101143.81;10538196;28;20048;-67
2022/10/13 06:15:38;;;;;;;7.95;5.30;;;;;;;12.67;86.11;101126.09;10538307;28;20043;-67
2022/10/13 06:20:39;;;;;;;13.52;7.82;;;;;;;12.56;84.37;101062.44;10520750;28;20145;-67
2022/10/13 06:25:51;;;;;;;13.10;6.40;;;;;;;13.28;79.38;101121.38;10537793;28;20036;-67
2022/10/13 06:30:55;;;;;;;9.23;4.50;;;;;;;13.60;80.92;101114.38;10489303;28;20393;-67
2022/10/13 06:36:02;;;;;;;11.18;4.53;;;;;;;13.77;79.04;101126.69;10495511;28;20106;-67
2022/10/13 06:41:04;;;;;;;6.18;3.63;;;;;;;13.70;79.63;101094.50;10496028;28;20040;-67
2022/10/13 06:46:06;;;;;;;6.47;3.83;;;;;;;14.03;78.76;101120.28;10496110;28;20040;-68
2022/10/13 06:51:09;;;;;;;7.55;3.60;;;;;;;14.33;77.21;101114.19;10496249;28;20075;-67
2022/10/13 06:56:10;;;;;;;5.13;3.65;;;;;;;14.54;76.81;101107.44;10495909;28;20044;-68
2022/10/13 07:01:12;;;;;;;5.88;3.05;;;;;;;14.53;75.10;101085.19;10495227;28;20045;-67
2022/10/13 07:06:13;;;;;;;4.55;2.33;;;;;;;15.00;74.67;101099.44;10494897;28;20045;-68
2022/10/13 07:11:14;;;;;;;5.10;3.05;;;;;;;15.27;72.11;101098.06;10495927;28;20159;-68
2022/10/13 07:16:15;;;;;;;6.60;3.28;;;;;;;15.58;70.81;101079.19;10498997;28;20048;-68
2022/10/13 07:21:16;;;;;;;5.72;2.60;;;;;;;15.82;70.50;101094.19;10503015;28;20090;-68
2022/10/13 07:26:17;;;;;;;8.85;2.80;;;;;;;16.02;69.53;101083.75;10503552;28;20442;-67
2022/10/13 07:31:19;;;;;;;4.30;2.50;;;;;;;16.40;66.09;101081.78;10504144;28;20067;-68
2022/10/13 07:36:20;;;;;;;4.85;2.70;;;;;;;16.30;65.17;100997.28;10502932;28;20048;-67
2022/10/13 07:41:20;;;;;;;5.38;2.78;;;;;;;17.08;65.59;101058.16;10484457;28;20113;-68
2022/10/13 07:46:22;;;;;;;5.63;2.60;;;;;;;17.24;63.80;101053.53;10502100;28;20101;-68
2022/10/13 07:51:23;;;;;;;7.22;4.00;;;;;;;17.08;63.13;101017.03;10501929;28;20044;-68
2022/10/13 07:56:23;;;;;;;5.90;3.50;;;;;;;16.52;62.52;100969.47;10503096;28;20045;-67
2022/10/13 08:01:24;;;;;;;17.45;7.57;;;;;;;16.81;61.59;100997.19;10502016;28;20118;-67
2022/10/13 08:06:25;;;;;;;15.27;2.83;;;;;;;17.36;60.56;101040.41;10501523;28;20048;-67
2022/10/13 08:11:26;;;;;;;4.35;1.90;;;;;;;17.58;59.12;101047.38;10501832;28;20484;-68
2022/10/13 08:16:28;;;;;;;5.97;1.85;;;;;;;17.62;56.80;101059.41;10501994;28;20043;-69
2022/10/13 08:21:29;;;;;;;7.88;4.38;;;;;;;17.60;56.61;101053.38;10484083;28;20041;-68
2022/10/13 08:26:30;;;;;;;8.43;2.30;;;;;;;17.70;56.07;101026.97;10500538;28;20044;-68
2022/10/13 08:31:31;;;;;;;4.40;2.45;;;;;;;17.69;55.82;100987.72;10537453;28;20056;-68
2022/10/13 08:36:31;;;;;;;4.28;2.00;;;;;;;17.97;55.44;101022.59;10543109;28;20051;-67
2022/10/13 08:41:38;;;;;;;6.47;2.60;;;;;;;17.99;54.12;100996.34;10541959;28;20044;-67
2022/10/13 08:47:13;;;;;;;17.33;4.22;;;;;;;18.35;51.93;101016.75;10541621;28;20479;-67
2022/10/13 08:52:23;;;;;;;4.85;2.10;;;;;;;18.39;51.68;101009.09;10529663;28;20475;-67
2022/10/13 08:57:24;;;;;;;4.95;2.50;;;;;;;18.68;53.40;101014.13;10524230;28;20446;-67
2022/10/13 09:02:30;;;;;;;10.57;2.92;;;;;;;18.51;52.09;101007.47;10541564;28;20046;-67
2022/10/13 09:07:36;;;;;;;15.13;2.90;;;;;;;18.56;52.59;100979.97;10541088;28;20452;-67
2022/10/13 09:12:37;;;;;;;7.93;2.92;;;;;;;18.71;52.59;100997.56;10541152;28;20471;-67
2022/10/13 09:17:40;;;;;;;12.60;3.45;;;;;;;18.64;52.85;100985.97;10540850;28;20511;-68
2022/10/13 09:22:41;;;;;;;4.03;2.40;;;;;;;18.35;53.38;100975.56;10541289;28;20047;-67
2022/10/13 09:27:44;;;;;;;9.68;2.80;;;;;;;18.12;52.95;100895.25;10540272;28;20530;-68
2022/10/13 09:32:44;;;;;;;10.48;2.60;;;;;;;18.68;53.37;100971.06;10540313;28;20510;-67
2022/10/13 09:38:00;;;;;;;3.72;2.60;;;;;;;18.56;53.39;100978.09;10539472;28;20047;-68
2022/10/13 09:43:05;;;;;;;4.53;2.80;;;;;;;18.40;52.79;100949.72;10539530;28;20096;-67
2022/10/13 09:48:20;;;;;;;8.20;2.50;;;;;;;18.52;52.77;100949.09;10539774;28;20047;-68
2022/10/13 09:53:30;;;;;;;3.50;2.22;;;;;;;18.02;51.20;100858.84;10539439;28;20407;-68
2022/10/13 09:58:35;;;;;;;5.20;2.70;;;;;;;18.45;52.25;100925.72;10539347;28;20047;-67
2022/10/13 10:03:37;;;;;;;7.13;2.60;;;;;;;18.09;52.93;100944.88;10538639;28;20044;-68
2022/10/13 10:08:48;;;;;;;15.30;2.95;;;;;;;17.13;53.86;100841.97;10539654;28;20043;-67
2022/10/13 10:13:51;;;;;;;7.40;2.70;;;;;;;17.18;54.54;100845.72;10538551;28;20586;-67
2022/10/13 10:19:05;;;;;;;7.95;2.97;;;;;;;18.09;53.44;100926.06;10538509;28;20042;-67
2022/10/13 10:24:27;;;;;;;;;;;;;;;18.44;52.32;100947.44;10539102;28;20047;-67
2022/10/13 10:29:57;;;;;;;5.45;2.80;;;;;;;17.47;52.82;100862.56;10538864;28;19920;-67
2022/10/13 10:35:16;;;;;;;12.00;2.53;;;;;;;18.06;54.82;100941.78;10538089;28;20514;-67
2022/10/13 10:40:33;;;;;;;19.42;3.13;;;;;;;18.44;53.66;100934.00;10538495;28;20468;-67
2022/10/13 10:45:38;;;;;;;6.22;2.55;;;;;;;18.18;52.07;100841.47;10537971;28;20068;-68
2022/10/13 10:50:39;;;;;;;10.15;2.60;;;;;;;19.12;51.83;100934.63;10537535;28;20513;-67
2022/10/13 10:56:01;;;;;;;6.00;2.70;;;;;;;18.92;50.37;100836.91;10537026;28;20453;-68
2022/10/13 11:01:13;;;;;;;6.88;2.63;;;;;;;19.70;50.51;100922.25;10537479;28;20048;-68
2022/10/13 11:06:17;;;;;;;8.23;2.75;;;;;;;19.05;49.83;100828.78;10537246;28;20036;-68
2022/10/13 11:11:32;;;;;;;12.10;3.65;;;;;;;19.44;50.18;100926.66;10536839;28;20071;-68
2022/10/13 11:17:08;;;;;;;23.38;4.88;;;;;;;19.02;51.12;100923.44;10536549;28;20462;-68
2022/10/13 11:22:17;;;;;;;8.85;3.00;;;;;;;18.63;52.09;100925.09;10536628;28;20127;-67
2022/10/13 11:27:24;;;;;;;5.43;3.47;;;;;;;18.31;52.34;100918.69;10517081;28;20090;-68
2022/10/13 11:32:53;;;;;;;23.33;5.53;;;;;;;17.56;53.03;100826.47;10476741;28;20499;-68
2022/10/13 11:37:59;;;;;;;7.65;2.67;;;;;;;17.71;51.88;100855.84;10493537;28;20047;-68
2022/10/13 11:43:09;;;;;;;14.07;3.58;;;;;;;18.32;53.20;100922.19;10494283;28;20040;-68
2022/10/13 11:48:34;;;;;;;4.35;2.53;;;;;;;18.38;53.25;100916.00;10494960;28;20048;-68
2022/10/13 11:54:03;;;;;;;9.27;3.15;;;;;;;18.38;52.58;100924.06;10493953;28;20037;-68
2022/10/13 11:59:04;;;;;;;6.20;2.38;;;;;;;18.43;53.26;100914.34;10495076;28;20443;-68
2022/10/13 12:04:13;;;;;;;3.60;2.10;;;;;;;18.67;52.22;100910.22;10500849;28;20041;-68
2022/10/13 12:09:18;;;;;;;4.35;2.20;;;;;;;18.74;52.39;100914.78;10502510;28;20044;-68
2022/10/13 12:14:36;;;;;;;7.38;2.53;;;;;;;18.71;51.38;100924.91;10501973;28;20047;-68
2022/10/13 12:19:39;;;;;;;4.25;2.20;;;;;;;18.19;51.75;100843.16;10502018;28;20119;-67
2022/10/13 12:24:39;;;;;;;6.07;2.70;;;;;;;18.31;52.53;100891.78;10501371;28;20090;-67
2022/10/13 12:29:40;;;;;;;9.05;2.80;;;;;;;18.28;53.10;100927.16;10501413;28;20067;-67
2022/10/13 12:34:41;;;;;;;8.85;2.92;;;;;;;17.40;54.29;100822.28;10501067;28;20051;-67
2022/10/13 12:39:42;;;;;;;5.00;2.42;;;;;;;17.22;54.33;100819.31;10502469;28;20439;-68
2022/10/13 12:44:44;;;;;;;6.63;2.75;;;;;;;17.50;55.48;100902.47;10519716;28;20044;-67
2022/10/13 12:49:44;;;;;;;4.88;2.30;;;;;;;16.81;55.10;100807.56;10511980;28;20048;-66
2022/10/13 12:54:47;;;;;;;3.92;2.42;;;;;;;17.42;55.85;100911.53;10502071;28;20059;-66
2022/10/13 12:59:48;;;;;;;11.75;2.10;;;;;;;17.38;55.64;100909.44;10525574;28;20048;-66
2022/10/13 13:04:49;;;;;;;17.25;3.28;;;;;;;17.38;56.65;100909.44;10534080;28;20535;-66
2022/10/13 13:10:00;;;;;;;45.28;4.43;;;;;;;17.41;57.20;100907.19;10509296;28;20091;-66
2022/10/13 13:15:34;;;;;;;13.60;4.00;;;;;;;17.36;57.94;100906.13;10480771;28;20556;-67
2022/10/13 13:20:36;;;;;;;30.08;6.88;;;;;;;17.16;58.26;100898.78;10520936;28;20097;-66
2022/10/13 13:25:37;;;;;;;31.25;7.88;;;;;;;16.87;59.04;100873.00;10541411;28;20039;-66
2022/10/13 13:30:38;;;;;;;83.25;23.13;;;;;;;16.78;59.40;100893.81;10540764;28;20499;-66
2022/10/13 13:35:39;;;;;;;39.22;12.15;;;;;;;16.65;59.80;100907.06;10496644;28;20078;-66
2022/10/13 13:40:39;;;;;;;58.10;9.75;;;;;;;16.49;60.45;100899.31;10498179;28;20040;-66
2022/10/13 13:45:40;;;;;;;32.92;9.15;;;;;;;16.23;61.03;100878.44;10497393;28;20523;-66
2022/10/13 13:50:41;;;;;;;73.40;10.27;;;;;;;15.55;61.54;100786.84;10497994;28;20046;-66
2022/10/13 13:55:45;;;;;;;53.70;12.48;;;;;;;15.91;62.85;100870.72;10485794;28;20073;-66
2022/10/13 14:00:46;;;;;;;48.83;14.63;;;;;;;15.82;63.70;100889.78;10539378;28;20050;-67
2022/10/13 14:05:48;;;;;;;58.67;17.42;;;;;;;15.74;64.82;100904.94;10539604;28;20046;-66
2022/10/13 14:10:48;;;;;;;51.40;14.55;;;;;;;15.35;65.98;100883.00;10538836;28;20442;-66
2022/10/13 14:16:00;;;;;;;34.92;10.25;;;;;;;15.25;69.19;100913.53;10517877;28;20090;-66
2022/10/13 14:21:05;;;;;;;41.50;9.57;;;;;;;15.10;68.45;100928.75;10496554;28;20488;-66
2022/10/13 14:26:08;;;;;;;29.23;9.38;;;;;;;14.93;67.51;100912.06;10495067;28;20071;-66
2022/10/13 14:31:10;;;;;;;32.33;8.95;;;;;;;14.92;68.13;100931.78;10496210;28;20056;-66
2022/10/13 14:36:10;;;;;;;68.13;12.20;;;;;;;14.76;68.95;100919.41;10495656;28;20044;-66
2022/10/13 14:41:11;;;;;;;58.90;11.63;;;;;;;14.69;69.79;100918.47;10496352;28;20043;-65
2022/10/13 14:46:12;;;;;;;34.75;12.15;;;;;;;14.46;70.42;100910.44;10496192;28;20119;-66
2022/10/13 14:51:13;;;;;;;53.50;15.98;;;;;;;14.01;71.36;100861.34;10498779;28;20496;-66
2022/10/13 14:56:25;;;;;;;53.53;16.42;;;;;;;14.29;75.90;100919.59;10505333;28;20049;-66
2022/10/13 15:01:26;;;;;;;51.85;18.77;;;;;;;14.09;74.13;100922.75;10495235;28;20098;-66
2022/10/13 15:06:27;;;;;;;63.05;27.10;;;;;;;13.89;75.29;100927.69;10495088;28;20047;-65
2022/10/13 15:11:28;;;;;;;52.95;25.38;;;;;;;13.80;76.25;100927.91;10497627;28;20041;-66
2022/10/13 15:16:33;;;;;;;61.80;23.08;;;;;;;13.66;78.03;100942.81;10495423;28;20049;-66
2022/10/13 15:21:34;;;;;;;66.32;26.58;;;;;;;13.48;78.18;100940.38;10511113;28;20407;-66
2022/10/13 15:26:35;;;;;;;118.78;31.65;;;;;;;12.93;79.17;100874.50;10537114;28;20040;-66
2022/10/13 15:31:36;;;;;;;93.13;38.42;;;;;;;12.54;79.78;100827.25;10535000;28;20052;-67
2022/10/13 15:36:37;;;;;;;85.18;42.05;;;;;;;13.11;80.42;100932.97;10487654;28;20056;-66
2022/10/13 15:41:38;;;;;;;115.15;48.83;;;;;;;12.37;80.96;100837.09;10511704;28;20032;-65
2022/10/13 15:46:39;;;;;;;94.70;43.42;;;;;;;12.89;82.04;100945.16;10535537;28;20181;-67
2022/10/13 15:51:40;;;;;;;69.25;31.45;;;;;;;12.80;82.68;100947.00;10544203;28;20051;-66
2022/10/13 15:56:41;;;;;;;54.63;26.25;;;;;;;12.03;83.30;100840.75;10544376;28;20046;-65
2022/10/13 16:01:41;;;;;;;51.00;22.77;;;;;;;12.67;83.94;100958.16;10526002;28;20039;-64
2022/10/13 16:06:42;;;;;;;46.67;20.85;;;;;;;12.59;84.31;100955.50;10543490;28;20040;-66
2022/10/13 16:11:43;;;;;;;52.42;15.93;;;;;;;12.03;84.67;100879.88;10526684;28;20094;-66
2022/10/13 16:16:44;;;;;;;26.60;13.93;;;;;;;12.51;85.47;100953.69;10526390;28;20054;-67
2022/10/13 16:21:45;;;;;;;34.20;13.88;;;;;;;12.45;86.21;100962.34;10532640;28;20050;-66
2022/10/13 16:26:46;;;;;;;20.90;10.95;;;;;;;11.96;85.70;100865.53;10519187;28;20047;-67
2022/10/13 16:31:47;;;;;;;22.55;11.48;;;;;;;12.47;85.82;100954.97;10490778;28;20056;-66
2022/10/13 16:36:49;;;;;;;24.05;11.23;;;;;;;12.45;86.39;100951.66;10521711;28;20044;-67
2022/10/13 16:41:50;;;;;;;21.50;9.82;;;;;;;12.25;86.22;100927.16;10503032;28;20033;-71
2022/10/13 16:46:52;;;;;;;18.83;9.23;;;;;;;12.41;86.26;100950.31;10507208;28;20052;-67
2022/10/13 16:51:53;;;;;;;19.60;8.82;;;;;;;12.37;86.20;100948.16;10513028;28;20048;-66
2022/10/13 16:56:54;;;;;;;21.67;8.90;;;;;;;12.32;86.62;100943.31;10490461;28;20040;-67
2022/10/13 17:01:56;;;;;;;16.73;8.20;;;;;;;12.24;86.97;100944.16;10507433;28;20118;-67
2022/10/13 17:06:57;;;;;;;17.98;7.47;;;;;;;11.68;87.83;100859.63;10538794;28;20086;-66
2022/10/13 17:11:58;;;;;;;19.42;7.78;;;;;;;12.07;87.54;100934.47;10512574;28;20063;-66
2022/10/13 17:16:59;;;;;;;12.15;6.45;;;;;;;12.19;88.13;100948.31;10540167;28;20038;-67
2022/10/13 17:22:00;;;;;;;12.25;6.70;;;;;;;12.12;87.64;100942.81;10531045;28;20403;-67
2022/10/13 17:27:01;;;;;;;25.42;6.43;;;;;;;12.05;87.65;100925.78;10526326;28;20105;-66
2022/10/13 17:32:02;;;;;;;20.70;5.88;;;;;;;12.16;87.16;100946.78;10521416;28;20424;-65
2022/10/13 17:37:03;;;;;;;16.38;6.65;;;;;;;11.99;87.76;100921.94;10538748;28;20385;-65
2022/10/13 17:42:05;;;;;;;8.18;4.93;;;;;;;11.51;87.36;100848.09;10538833;28;20043;-65
2022/10/13 17:47:06;;;;;;;18.95;6.60;;;;;;;12.18;87.59;100958.13;10537423;28;20036;-66
2022/10/13 17:52:06;;;;;;;15.77;5.93;;;;;;;12.11;87.05;100925.13;10537964;28;20051;-66
2022/10/13 17:57:07;;;;;;;27.80;6.32;;;;;;;11.57;86.70;100831.47;10536766;28;20495;-66
2022/10/13 18:02:09;;;;;;;17.95;6.20;;;;;;;12.15;87.68;100937.16;10511510;28;20479;-66
2022/10/13 18:07:09;;;;;;;11.07;5.72;;;;;;;12.12;88.06;100934.81;10532298;28;20059;-67
2022/10/13 18:12:11;;;;;;;18.60;6.60;;;;;;;12.04;88.19;100938.28;10538203;28;20081;-66
2022/10/13 18:17:11;;;;;;;10.98;6.13;;;;;;;11.46;88.25;100845.09;10534292;28;20146;-66
2022/10/13 18:22:12;;;;;;;14.18;6.60;;;;;;;11.30;88.60;100833.41;10519151;28;20072;-66
2022/10/13 18:27:13;;;;;;;18.38;6.00;;;;;;;11.84;89.07;100937.69;10530707;28;20036;-66
2022/10/13 18:32:14;;;;;;;13.13;5.82;;;;;;;11.72;89.49;100923.00;10533085;28;20407;-66
2022/10/13 18:37:15;;;;;;;16.05;5.82;;;;;;;11.16;89.53;100831.38;10535336;28;20036;-66
2022/10/13 18:42:16;;;;;;;10.30;5.53;;;;;;;11.81;88.65;100924.69;10537385;28;20040;-66
2022/10/13 18:47:17;;;;;;;9.98;5.85;;;;;;;10.83;89.10;100746.16;10538102;28;20036;-66
2022/10/13 18:52:18;;;;;;;25.00;7.88;;;;;;;11.22;89.75;100817.44;10522614;28;20055;-66
2022/10/13 18:57:19;;;;;;;21.98;6.72;;;;;;;11.73;90.31;100922.03;10508310;28;20116;-66
2022/10/13 19:02:19;;;;;;;28.67;8.82;;;;;;;11.83;90.28;100928.03;10495141;28;20036;-66
2022/10/13 19:07:20;;;;;;;31.73;10.05;;;;;;;11.83;90.10;100919.22;10524300;28;20040;-66
2022/10/13 19:12:21;;;;;;;22.15;10.20;;;;;;;10.62;90.24;100729.75;10541243;28;20090;-66
2022/10/13 19:17:22;;;;;;;25.00;10.05;;;;;;;11.70;90.71;100906.38;10546359;28;20090;-66
2022/10/13 19:22:22;;;;;;;24.92;10.07;;;;;;;11.68;91.02;100913.69;10545487;28;20101;-66
2022/10/13 19:27:23;;;;;;;41.05;16.38;;;;;;;11.55;91.50;100892.88;10534343;28;20055;-67
2022/10/13 19:32:24;;;;;;;30.50;13.05;;;;;;;11.63;92.05;100898.19;10514014;28;20048;-66
2022/10/13 19:37:25;;;;;;;86.95;25.90;;;;;;;11.64;92.62;100899.03;10502697;28;20415;-66
2022/10/13 19:42:25;;;;;;;41.90;16.98;;;;;;;11.58;92.61;100900.53;10503170;28;20127;-66
2022/10/13 19:47:27;;;;;;;18.13;8.75;;;;;;;10.91;93.01;100798.50;10506404;28;20051;-66
2022/10/13 19:52:28;;;;;;;13.20;8.30;;;;;;;11.50;93.70;100891.69;10509076;28;20048;-66
2022/10/13 19:57:29;;;;;;;15.82;7.93;;;;;;;11.48;93.83;100894.47;10502254;28;20119;-66
2022/10/13 20:02:30;;;;;;;10.80;6.53;;;;;;;11.43;94.60;100897.63;10502142;28;20131;-66
2022/10/13 20:07:30;;;;;;;12.02;6.82;;;;;;;11.38;95.33;100891.13;10484444;28;20125;-66
2022/10/13 20:12:31;;;;;;;10.38;7.20;;;;;;;11.40;95.67;100897.13;10502049;28;20055;-66
2022/10/13 20:17:32;;;;;;;12.40;6.82;;;;;;;10.79;95.99;100799.78;10502092;28;20036;-66
2022/10/13 20:22:33;;;;;;;15.38;7.25;;;;;;;11.31;96.65;100879.47;10501173;28;20055;-66
2022/10/13 20:27:34;;;;;;;19.88;6.95;;;;;;;11.42;97.36;100889.81;10500596;28;20139;-66
2022/10/13 20:32:35;;;;;;;11.05;6.85;;;;;;;11.05;97.40;100834.31;10511401;28;20094;-66
2022/10/13 20:37:36;;;;;;;10.65;7.13;;;;;;;11.36;97.75;100880.63;10500481;28;20131;-66
2022/10/13 20:42:37;;;;;;;15.65;7.30;;;;;;;11.23;98.01;100882.09;10501521;28;20186;-66
2022/10/13 20:47:38;;;;;;;11.35;7.55;;;;;;;11.26;98.53;100892.41;10500617;28;20507;-66
2022/10/13 20:52:38;;;;;;;28.75;14.18;;;;;;;10.58;98.66;100786.88;10500574;28;20040;-66
2022/10/13 20:57:39;;;;;;;21.25;11.20;;;;;;;10.95;99.00;100856.53;10500351;28;20040;-66
2022/10/13 21:02:40;;;;;;;23.27;10.77;;;;;;;11.01;98.95;100875.47;10500248;28;20036;-66
2022/10/13 21:07:41;;;;;;;93.13;38.00;;;;;;;10.26;99.42;100767.03;10499903;28;20048;-66
2022/10/13 21:12:41;;;;;;;54.67;26.52;;;;;;;10.88;100.00;100874.06;10501565;28;20028;-66
2022/10/13 21:17:42;;;;;;;38.60;16.52;;;;;;;10.13;99.95;100766.63;10519155;28;20068;-66
2022/10/13 21:22:43;;;;;;;31.33;14.75;;;;;;;10.75;100.00;100857.72;10499599;28;20044;-66
2022/10/13 21:27:44;;;;;;;27.38;13.73;;;;;;;10.78;100.00;100857.41;10499079;28;20056;-66
2022/10/13 21:32:45;;;;;;;25.27;10.27;;;;;;;10.76;100.00;100869.19;10497745;28;20050;-66
2022/10/13 21:37:46;;;;;;;14.18;7.63;;;;;;;10.26;100.00;100809.53;10498681;28;20054;-66
2022/10/13 21:42:46;;;;;;;17.23;7.93;;;;;;;10.62;100.00;100883.84;10499715;28;20036;-66
2022/10/13 21:47:47;;;;;;;13.30;8.27;;;;;;;10.50;100.00;100886.78;10498232;28;20041;-66
2022/10/13 21:52:48;;;;;;;16.80;7.63;;;;;;;9.98;100.00;100791.06;10497946;28;20044;-66
2022/10/13 21:57:49;;;;;;;14.05;7.75;;;;;;;9.98;100.00;100782.25;10497787;28;20048;-66
2022/10/13 22:02:50;;;;;;;16.88;7.90;;;;;;;10.39;100.00;100863.13;10497452;28;20055;-66
2022/10/13 22:07:50;;;;;;;12.63;7.80;;;;;;;9.27;100.00;100698.22;10497050;28;20037;-66
2022/10/13 22:12:51;;;;;;;17.48;9.00;;;;;;;9.63;100.00;100760.06;10496511;28;20127;-66
2022/10/13 22:17:52;;;;;;;33.10;16.92;;;;;;;9.64;100.00;100772.38;10496594;28;20044;-66
2022/10/13 22:22:53;;;;;;;30.50;12.18;;;;;;;10.10;100.00;100852.72;10496746;28;20037;-66
2022/10/13 22:27:53;;;;;;;32.17;16.00;;;;;;;10.05;100.00;100861.16;10479860;28;20056;-66
2022/10/13 22:32:54;;;;;;;31.58;13.68;;;;;;;10.14;100.00;100874.47;10496295;28;20044;-66
2022/10/13 22:37:55;;;;;;;27.98;13.13;;;;;;;10.14;100.00;100877.13;10496401;28;20097;-66
2022/10/13 22:42:56;;;;;;;29.17;15.45;;;;;;;10.14;100.00;100874.47;10496360;28;20040;-66
2022/10/13 22:47:56;;;;;;;35.50;13.30;;;;;;;10.00;100.00;100854.63;10495975;28;20488;-66
2022/10/13 22:52:57;;;;;;;35.40;15.18;;;;;;;10.04;100.00;100867.41;10495651;28;20044;-66
2022/10/13 22:57:58;;;;;;;52.05;22.38;;;;;;;9.95;100.00;100876.28;10537163;28;20044;-66
2022/10/13 23:02:59;;;;;;;21.13;12.38;;;;;;;9.71;100.00;100837.09;10537621;28;20040;-66